^^
Grace C. Lehan Memorial Weather Station Historical Data
Daily Summary for January 31, 2022 Units:  English    Metric   Both
Daily Weekly Monthly Yearly
  High: Low: Average:
Temperature: 52.9 °F 42.4 °F 48.7 °F
Dew Point: 51.5 °F 39.4 °F 46.9 °F
Humidity: 96% 86.4% 94%
Wind Speed: 4mph 0mph 0mph
Wind Gust: 7mph - -
Wind- - South
Pressure: 30.15 in 29.67 in -
Precipitation: 0.37 in    
 
 
Tabular Data for January 31, 2022
Time Temperature Dew Point Pressure Wind Wind Speed Wind Gust Humidity Rainfall Rate (Hourly) solar
00:04 44.1 °F 40.3 °F 30.15 in Calm     86.4% 0.00 in 0 W/m2
00:09 44.1 °F 40.5 °F 30.15 in Calm     87% 0.00 in 0 W/m2
00:14 44.2 °F 40.6 °F 30.14 in Calm     87% 0.00 in 0 W/m2
00:19 44.2 °F 40.6 °F 30.14 in Calm     87% 0.00 in 0 W/m2
00:24 44.2 °F 40.6 °F 30.14 in Calm     87% 0.00 in 0 W/m2
00:29 44.2 °F 40.6 °F 30.14 in Calm     87% 0.00 in 0 W/m2
00:34 44.2 °F 40.5 °F 30.14 in South 0.1 mph 2 mph 87% 0.00 in 0 W/m2
00:39 44.1 °F 40.7 °F 30.14 in Calm   2 mph 87.8% 0.00 in 0 W/m2
00:44 44 °F 40.7 °F 30.14 in Calm   2 mph 88% 0.00 in 0 W/m2
00:49 44 °F 40.7 °F 30.14 in Calm   2 mph 88% 0.00 in 0 W/m2
00:54 43.9 °F 40.6 °F 30.14 in Calm   2 mph 88% 0.00 in 0 W/m2
00:59 43.8 °F 40.5 °F 30.14 in Calm   2 mph 88% 0.00 in 0 W/m2
01:04 43.7 °F 40.4 °F 30.13 in Calm   2 mph 88% 0.00 in 0 W/m2
01:09 43.6 °F 40.3 °F 30.13 in Calm     88% 0.00 in 0 W/m2
01:14 43.4 °F 40.1 °F 30.13 in Calm     88% 0.00 in 0 W/m2
01:19 43.3 °F 40 °F 30.13 in Calm     88% 0.00 in 0 W/m2
01:24 43.1 °F 39.8 °F 30.14 in Calm     88% 0.00 in 0 W/m2
01:29 43 °F 39.9 °F 30.14 in Calm     88.8% 0.00 in 0 W/m2
01:34 42.8 °F 39.6 °F 30.14 in Calm     88.2% 0.00 in 0 W/m2
01:39 42.7 °F 39.7 °F 30.14 in Calm     89% 0.00 in 0 W/m2
01:44 42.5 °F 39.5 °F 30.14 in Calm     89% 0.00 in 0 W/m2
01:49 42.4 °F 39.4 °F 30.13 in Calm     89% 0.00 in 0 W/m2
01:54 42.4 °F 39.5 °F 30.13 in Calm     89.4% 0.00 in 0 W/m2
01:59 42.5 °F 39.8 °F 30.13 in Calm     90% 0.00 in 0 W/m2
02:04 42.6 °F 40.1 °F 30.13 in Calm     90.7% 0.00 in 0 W/m2
02:09 42.7 °F 40.3 °F 30.13 in Calm     91% 0.00 in 0 W/m2
02:14 42.8 °F 40.4 °F 30.14 in Calm     91% 0.00 in 0 W/m2
02:19 42.8 °F 40.3 °F 30.14 in Calm     91% 0.00 in 0 W/m2
02:24 42.7 °F 40.3 °F 30.14 in Calm     91% 0.00 in 0 W/m2
02:29 42.6 °F 40.2 °F 30.14 in Calm     91% 0.00 in 0 W/m2
02:34 42.6 °F 40.1 °F 30.14 in Calm     90.8% 0.00 in 0 W/m2
02:39 42.5 °F 40.1 °F 30.14 in Calm     91% 0.00 in 0 W/m2
02:44 42.5 °F 40.1 °F 30.14 in Calm     91% 0.00 in 0 W/m2
02:49 42.5 °F 40.1 °F 30.13 in Calm     91% 0.00 in 0 W/m2
02:54 42.6 °F 40.2 °F 30.12 in Calm     91% 0.00 in 0 W/m2
02:59 42.6 °F 40.2 °F 30.12 in Calm     91% 0.00 in 0 W/m2
03:04 42.6 °F 40.2 °F 30.12 in Calm     91% 0.00 in 0 W/m2
03:09 42.6 °F 40.2 °F 30.12 in Calm     91% 0.00 in 0 W/m2
03:14 42.6 °F 40.4 °F 30.12 in Calm     91.7% 0.00 in 0 W/m2
03:19 42.7 °F 40.5 °F 30.12 in Calm     92% 0.00 in 0 W/m2
03:24 42.7 °F 40.6 °F 30.12 in Calm     92% 0.00 in 0 W/m2
03:29 42.9 °F 40.7 °F 30.11 in Calm     92% 0.00 in 0 W/m2
03:34 43.1 °F 40.9 °F 30.11 in Calm     92% 0.00 in 0 W/m2
03:39 43.1 °F 40.9 °F 30.11 in Calm     92% 0.00 in 0 W/m2
03:44 43.1 °F 40.9 °F 30.10 in Calm     92% 0.00 in 0 W/m2
03:49 43.1 °F 40.9 °F 30.10 in Calm     92% 0.00 in 0 W/m2
03:54 43.2 °F 41 °F 30.10 in Calm     92% 0.00 in 0 W/m2
03:59 43.3 °F 41.1 °F 30.10 in Calm     92% 0.00 in 0 W/m2
04:09 43.6 °F 41.7 °F 30.10 in Calm     92.8% 0.00 in 0 W/m2
04:14 43.7 °F 41.9 °F 30.10 in Calm     93% 0.00 in 0 W/m2
04:19 43.9 °F 42 °F 30.09 in Calm     93% 0.00 in 0 W/m2
04:24 44.1 °F 42.2 °F 30.09 in Calm     93% 0.00 in 0 W/m2
04:29 44.4 °F 42.5 °F 30.08 in Calm     93% 0.00 in 0 W/m2
04:34 44.6 °F 42.7 °F 30.08 in Calm     93% 0.00 in 0 W/m2
04:39 44.8 °F 42.9 °F 30.08 in Calm     93% 0.00 in 0 W/m2
04:44 44.8 °F 42.9 °F 30.08 in Calm     93% 0.00 in 0 W/m2
04:49 44.8 °F 42.9 °F 30.08 in Calm     93% 0.00 in 0 W/m2
04:54 44.9 °F 43 °F 30.08 in Calm     93% 0.00 in 0 W/m2
04:59 44.9 °F 43 °F 30.07 in Calm     93% 0.00 in 0 W/m2
05:04 45 °F 43.1 °F 30.08 in Calm     93% 0.00 in 0 W/m2
05:09 45.1 °F 43.2 °F 30.08 in Calm     93% 0.00 in 0 W/m2
05:14 45.2 °F 43.3 °F 30.08 in Calm     93% 0.00 in 0 W/m2
05:19 45.3 °F 43.4 °F 30.08 in Calm     93% 0.00 in 0 W/m2
05:24 45.4 °F 43.5 °F 30.08 in Calm     93% 0.00 in 0 W/m2
05:29 45.5 °F 43.6 °F 30.08 in Calm     93% 0.00 in 0 W/m2
05:34 45.6 °F 43.7 °F 30.08 in Calm     93% 0.00 in 0 W/m2
05:39 45.8 °F 43.9 °F 30.08 in Calm     93% 0.00 in 0 W/m2
05:44 45.8 °F 43.9 °F 30.08 in Calm     93% 0.00 in 0 W/m2
05:49 46 °F 44 °F 30.08 in Calm     93% 0.00 in 0 W/m2
05:54 46 °F 44.1 °F 30.07 in Calm     93% 0.00 in 0 W/m2
05:59 46.2 °F 44.3 °F 30.07 in Calm     93% 0.00 in 0 W/m2
06:04 46.4 °F 44.5 °F 30.07 in Calm     93% 0.00 in 0 W/m2
06:09 46.6 °F 44.7 °F 30.07 in Calm     93% 0.00 in 0 W/m2
06:14 46.8 °F 44.9 °F 30.07 in Calm     93% 0.00 in 0 W/m2
06:19 47 °F 45.1 °F 30.07 in Calm     93% 0.00 in 0 W/m2
06:24 47.1 °F 45 °F 30.07 in Calm     92.3% 0.00 in 0 W/m2
06:29 47.2 °F 45 °F 30.07 in Calm     92% 0.00 in 0 W/m2
06:34 47.2 °F 45 °F 30.07 in Calm     92% 0.00 in 0 W/m2
06:39 47.2 °F 45 °F 30.07 in Calm     92% 0.00 in 0 W/m2
06:44 47.3 °F 45.1 °F 30.07 in Calm     92% 0.00 in 0 W/m2
06:49 47.3 °F 45.1 °F 30.07 in Calm     92% 0.00 in 0 W/m2
06:54 47.4 °F 45.2 °F 30.07 in Calm     92% 0.00 in 0 W/m2
06:59 47.4 °F 45.2 °F 30.07 in Calm     92% 0.00 in 0 W/m2
07:04 47.4 °F 45.2 °F 30.07 in Calm     92% 0.00 in 0 W/m2
07:09 47.4 °F 45.2 °F 30.07 in Calm     92% 0.00 in 0 W/m2
07:14 47.4 °F 45.2 °F 30.07 in Calm     92% 0.00 in 0 W/m2
07:19 47.5 °F 45.3 °F 30.07 in Calm   1 mph 92% 0.00 in 0 W/m2
07:24 47.6 °F 45.4 °F 30.07 in Calm   1 mph 92% 0.00 in 0 W/m2
07:29 47.7 °F 45.5 °F 30.07 in Calm   1 mph 92% 0.01 in 0 W/m2
07:34 47.8 °F 45.5 °F 30.07 in Calm   1 mph 92% 0.01 in 5 W/m2
07:39 47.7 °F 45.5 °F 30.07 in Calm     92% 0.01 in 7 W/m2
07:44 47.6 °F 45.4 °F 30.07 in Calm     92% 0.01 in 9 W/m2
07:49 47.6 °F 45.4 °F 30.07 in Calm     92% 0.01 in 11 W/m2
07:54 47.6 °F 45.4 °F 30.07 in Calm   1 mph 92% 0.01 in 12 W/m2
07:59 47.5 °F 45.3 °F 30.07 in Calm   1 mph 92% 0.01 in 19 W/m2
08:00 47.5 °F 45.3 °F 30.07 in Calm   1 mph 92% 0.01 in 19 W/m2
08:09 47.5 °F 45.3 °F 30.06 in Calm     92% 0.01 in 25 W/m2
08:14 47.6 °F 45.6 °F 30.07 in Calm     92.6% 0.01 in 21 W/m2
08:19 47.6 °F 45.7 °F 30.07 in Calm     93% 0.01 in 23 W/m2
08:24 47.7 °F 45.8 °F 30.07 in Calm     93% 0.01 in 18 W/m2
08:29 47.8 °F 45.9 °F 30.07 in South 0.3 mph 3 mph 93% 0.01 in 19 W/m2
08:34 48 °F 46.1 °F 30.07 in Calm   3 mph 93% 0.01 in 30 W/m2
08:39 48.2 °F 46.6 °F 30.06 in South 0.1 mph 2 mph 94.1% 0.00 in 47 W/m2
08:44 48.4 °F 46.7 °F 30.06 in Calm   2 mph 94% 0.00 in 60 W/m2
08:49 48.6 °F 46.9 °F 30.06 in Calm   2 mph 94% 0.00 in 54 W/m2
08:54 48.7 °F 47 °F 30.06 in Calm   2 mph 94% 0.00 in 54 W/m2
08:59 48.8 °F 47.1 °F 30.06 in Calm   2 mph 94% 0.00 in 42 W/m2
09:04 49 °F 47.3 °F 30.05 in Calm   2 mph 94% 0.00 in 72 W/m2
09:09 49.2 °F 47.5 °F 30.05 in Calm   1 mph 94% 0.00 in 104 W/m2
09:14 49.4 °F 47.8 °F 30.03 in Calm   1 mph 94% 0.00 in 111 W/m2
09:19 49.7 °F 48 °F 30.03 in Calm   1 mph 94% 0.00 in 102 W/m2
09:24 49.9 °F 48.3 °F 30.03 in Calm   1 mph 94% 0.00 in 77 W/m2
09:29 50.1 °F 48.4 °F 30.02 in Calm   1 mph 94% 0.00 in 60 W/m2
09:34 50.3 °F 48.6 °F 30.02 in South 0.2 mph 3 mph 94% 0.00 in 56 W/m2
09:39 50.4 °F 48.8 °F 30.03 in Calm   3 mph 94% 0.00 in 53 W/m2
09:44 50.5 °F 48.8 °F 30.03 in Calm   3 mph 94% 0.00 in 42 W/m2
09:49 50.6 °F 48.9 °F 30.03 in South 0.5 mph 4 mph 94% 0.00 in 42 W/m2
09:54 50.6 °F 48.9 °F 30.03 in Calm   4 mph 94% 0.00 in 49 W/m2
09:59 50.6 °F 48.9 °F 30.02 in Calm   4 mph 94% 0.00 in 67 W/m2
10:04 50.6 °F 49 °F 30.01 in Calm   4 mph 94% 0.00 in 69 W/m2
10:09 50.7 °F 49.1 °F 30.02 in Calm     94% 0.00 in 69 W/m2
10:14 50.8 °F 49.2 °F 30.02 in Calm     94% 0.00 in 74 W/m2
10:19 50.9 °F 49.2 °F 30.02 in Calm     94% 0.00 in 74 W/m2
10:24 51 °F 49.3 °F 30.01 in Calm   1 mph 94% 0.00 in 53 W/m2
10:29 51.1 °F 49.4 °F 30.00 in South 0.2 mph 3 mph 94% 0.00 in 42 W/m2
10:34 51.2 °F 49.5 °F 30.00 in South 0.2 mph 3 mph 94% 0.00 in 32 W/m2
10:39 51.2 °F 49.5 °F 30.00 in South 0.3 mph 3 mph 94% 0.00 in 35 W/m2
10:44 51.2 °F 49.5 °F 30.00 in Calm   3 mph 94% 0.00 in 35 W/m2
10:49 51.2 °F 49.5 °F 29.99 in Calm   3 mph 94% 0.00 in 35 W/m2
10:54 51.2 °F 49.5 °F 29.99 in Calm   3 mph 94% 0.00 in 30 W/m2
10:59 51.2 °F 49.5 °F 29.99 in South 0.1 mph 3 mph 94% 0.00 in 26 W/m2
11:04 51.2 °F 49.5 °F 30.00 in South 0.5 mph 5 mph 94% 0.00 in 33 W/m2
11:09 51.2 °F 49.5 °F 29.99 in South 0.1 mph 5 mph 94% 0.00 in 47 W/m2
11:14 51.2 °F 49.6 °F 29.99 in South 0.1 mph 5 mph 94% 0.00 in 62 W/m2
11:19 51.3 °F 49.8 °F 29.98 in South 0.4 mph 5 mph 94.4% 0.00 in 63 W/m2
11:24 51.5 °F 50.1 °F 29.98 in South 0.5 mph 5 mph 95% 0.00 in 65 W/m2
11:29 51.6 °F 50.2 °F 29.98 in South 0.9 mph 7 mph 95% 0.00 in 69 W/m2
11:34 51.7 °F 50.3 °F 29.97 in South 0.7 mph 7 mph 95% 0.00 in 69 W/m2
11:39 51.8 °F 50.4 °F 29.97 in South 0.1 mph 5 mph 95% 0.00 in 63 W/m2
11:44 51.9 °F 50.5 °F 29.97 in Calm   5 mph 95% 0.00 in 63 W/m2
11:49 51.9 °F 50.5 °F 29.97 in South 0.2 mph 5 mph 95% 0.00 in 53 W/m2
11:54 51.9 °F 50.5 °F 29.96 in Calm   5 mph 95% 0.00 in 69 W/m2
11:59 52 °F 50.6 °F 29.96 in South 0.2 mph 5 mph 95% 0.00 in 74 W/m2
12:00 52.1 °F 50.7 °F 29.96 in South 4 mph 5 mph 95% 0.00 in 74 W/m2
12:09 52.2 °F 50.8 °F 29.96 in Calm   1 mph 95% 0.00 in 83 W/m2
12:14 52.3 °F 50.9 °F 29.95 in South 0.5 mph 4 mph 95% 0.00 in 76 W/m2
12:19 52.3 °F 51 °F 29.96 in South 0.1 mph 4 mph 95% 0.00 in 67 W/m2
12:24 52.4 °F 51 °F 29.95 in Calm   4 mph 95% 0.00 in 56 W/m2
12:29 52.5 °F 51.1 °F 29.94 in Calm   4 mph 95% 0.00 in 67 W/m2
12:31 52.5 °F 51.1 °F 29.94 in Calm   4 mph 95% 0.00 in 58 W/m2
13:00 52.8 °F 51.4 °F 29.93 in Calm   2 mph 95% 0.00 in 59 W/m2
13:30 52.9 °F 51.5 °F 29.92 in Calm   4 mph 95% 0.00 in 60 W/m2
14:00 52.9 °F 51.5 °F 29.92 in Calm     95% 0.00 in 29 W/m2
14:30 52.7 °F 51.3 °F 29.90 in Calm     95% 0.02 in 28 W/m2
15:00 52.5 °F 51.1 °F 29.88 in Calm     95% 0.04 in 20 W/m2
15:30 52.4 °F 51 °F 29.87 in Calm     95% 0.05 in 16 W/m2
16:04 52.1 °F 50.7 °F 29.87 in Calm     95% 0.05 in 16 W/m2
16:09 52.1 °F 50.7 °F 29.86 in Calm     95% 0.04 in 0 W/m2
16:14 52.2 °F 50.8 °F 29.86 in Calm     95% 0.04 in 0 W/m2
16:19 52.2 °F 50.8 °F 29.85 in Calm     95% 0.04 in 0 W/m2
16:24 52.2 °F 50.8 °F 29.85 in Calm     95% 0.04 in 0 W/m2
16:29 52.2 °F 50.8 °F 29.85 in Calm     95% 0.05 in 0 W/m2
16:34 52.1 °F 50.7 °F 29.85 in Calm     95% 0.05 in 0 W/m2
16:39 52 °F 50.7 °F 29.85 in Calm     95% 0.02 in 0 W/m2
16:44 52 °F 50.6 °F 29.85 in Calm     95% 0.02 in 0 W/m2
16:49 51.9 °F 50.5 °F 29.85 in Calm     95% 0.03 in 0 W/m2
16:54 51.8 °F 50.4 °F 29.85 in Calm     95% 0.03 in 0 W/m2
16:59 51.9 °F 50.5 °F 29.85 in Calm     95% 0.04 in 0 W/m2
17:04 51.9 °F 50.5 °F 29.84 in Calm     95% 0.04 in 0 W/m2
17:09 51.9 °F 50.5 °F 29.84 in Calm     95% 0.03 in 0 W/m2
17:14 51.9 °F 50.5 °F 29.84 in Calm     95% 0.04 in 0 W/m2
17:19 51.9 °F 50.5 °F 29.84 in Calm     95.1% 0.04 in 0 W/m2
17:24 52 °F 50.9 °F 29.84 in Calm     96% 0.04 in 0 W/m2
17:29 52 °F 50.9 °F 29.83 in Calm     96% 0.05 in 0 W/m2
17:34 52 °F 50.7 °F 29.83 in Calm     95.5% 0.06 in 0 W/m2
17:39 51.9 °F 50.5 °F 29.83 in Calm     95% 0.06 in 0 W/m2
17:44 51.8 °F 50.4 °F 29.82 in Calm     95% 0.07 in 0 W/m2
17:49 51.6 °F 50.3 °F 29.81 in Calm     95% 0.08 in 0 W/m2
17:54 51.6 °F 50.5 °F 29.81 in Calm     95.9% 0.08 in 0 W/m2
17:59 51.6 °F 50.5 °F 29.81 in Calm     96% 0.08 in 0 W/m2
18:04 51.6 °F 50.5 °F 29.81 in Calm     96% 0.08 in 0 W/m2
18:09 51.5 °F 50.4 °F 29.81 in Calm     96% 0.07 in 0 W/m2
18:14 51.5 °F 50.4 °F 29.81 in Calm     96% 0.07 in 0 W/m2
18:19 51.5 °F 50.2 °F 29.81 in Calm     95.5% 0.08 in 0 W/m2
18:24 51.3 °F 50 °F 29.81 in Calm     95% 0.08 in 0 W/m2
18:29 51.2 °F 49.9 °F 29.81 in Calm     95% 0.08 in 0 W/m2
18:34 51.2 °F 49.8 °F 29.80 in Calm     95.2% 0.08 in 0 W/m2
18:39 51.1 °F 50 °F 29.80 in Calm     96% 0.06 in 0 W/m2
18:44 51.1 °F 50 °F 29.79 in Calm     96% 0.06 in 0 W/m2
18:49 51 °F 49.9 °F 29.79 in Calm     96% 0.06 in 0 W/m2
18:54 51 °F 49.9 °F 29.79 in Calm     96% 0.06 in 0 W/m2
18:59 51 °F 49.9 °F 29.79 in Calm     96% 0.06 in 0 W/m2
19:04 51 °F 49.9 °F 29.79 in Calm     96% 0.06 in 0 W/m2
19:09 50.9 °F 49.8 °F 29.79 in Calm     96% 0.03 in 0 W/m2
19:14 51 °F 49.9 °F 29.79 in Calm     96% 0.03 in 0 W/m2
19:19 51 °F 49.9 °F 29.79 in Calm     96% 0.03 in 0 W/m2
19:24 51 °F 49.9 °F 29.78 in Calm     96% 0.03 in 0 W/m2
19:29 50.9 °F 49.8 °F 29.78 in Calm     96% 0.03 in 0 W/m2
19:34 50.9 °F 49.8 °F 29.78 in Calm     96% 0.03 in 0 W/m2
19:39 51 °F 49.9 °F 29.78 in Calm     96% 0.01 in 0 W/m2
19:44 51 °F 49.9 °F 29.78 in Calm     96% 0.01 in 0 W/m2
19:49 50.9 °F 49.8 °F 29.78 in Calm     96% 0.01 in 0 W/m2
19:54 50.9 °F 49.8 °F 29.77 in Calm     96% 0.01 in 0 W/m2
19:59 51 °F 49.9 °F 29.77 in Calm     96% 0.01 in 0 W/m2
20:04 51.1 °F 50 °F 29.77 in Calm     96% 0.02 in 0 W/m2
20:09 51.1 °F 50 °F 29.77 in Calm     96% 0.02 in 0 W/m2
20:14 51.2 °F 50.1 °F 29.76 in Calm     96% 0.02 in 0 W/m2
20:19 51.1 °F 50 °F 29.76 in Calm     96% 0.03 in 0 W/m2
20:24 51.1 °F 50 °F 29.76 in Calm     96% 0.03 in 0 W/m2
20:29 51.2 °F 50.1 °F 29.76 in Calm     96% 0.03 in 0 W/m2
20:34 51.3 °F 50.2 °F 29.76 in Calm     96% 0.03 in 0 W/m2
20:39 51.2 °F 50.1 °F 29.75 in Calm   1 mph 96% 0.03 in 0 W/m2
20:44 51.2 °F 50.1 °F 29.75 in Calm   1 mph 96% 0.03 in 0 W/m2
20:49 51 °F 49.9 °F 29.75 in Calm   1 mph 96% 0.03 in 0 W/m2
20:54 51 °F 49.9 °F 29.75 in Calm   1 mph 96% 0.03 in 0 W/m2
20:59 51 °F 49.9 °F 29.75 in Calm   1 mph 96% 0.03 in 0 W/m2
21:04 51 °F 49.9 °F 29.75 in Calm   1 mph 96% 0.03 in 0 W/m2
21:09 51 °F 49.9 °F 29.74 in Calm     96% 0.02 in 0 W/m2
21:14 51 °F 49.9 °F 29.74 in Calm     96% 0.03 in 0 W/m2
21:19 51 °F 49.9 °F 29.74 in Calm     96% 0.03 in 0 W/m2
21:24 51 °F 49.9 °F 29.73 in Calm     96% 0.03 in 0 W/m2
21:29 51.1 °F 50 °F 29.73 in Calm     96% 0.03 in 0 W/m2
21:34 51.1 °F 50 °F 29.73 in Calm     96% 0.04 in 0 W/m2
21:39 51.1 °F 50 °F 29.72 in Calm     96% 0.04 in 0 W/m2
21:44 51.2 °F 50.1 °F 29.72 in Calm     96% 0.04 in 0 W/m2
21:49 51.4 °F 50.3 °F 29.71 in Calm     96% 0.04 in 0 W/m2
21:54 51.5 °F 50.4 °F 29.71 in Calm     96% 0.04 in 0 W/m2
21:59 51.6 °F 50.5 °F 29.71 in Calm     96% 0.05 in 0 W/m2
22:04 51.6 °F 50.5 °F 29.71 in Calm     96% 0.05 in 0 W/m2
22:09 51.5 °F 50.4 °F 29.71 in Calm     96% 0.04 in 0 W/m2
22:14 51.4 °F 50.3 °F 29.72 in Calm     96% 0.04 in 0 W/m2
22:19 51.3 °F 50.2 °F 29.72 in Calm     96% 0.05 in 0 W/m2
22:24 51.2 °F 50.1 °F 29.72 in Calm     96% 0.06 in 0 W/m2
22:29 51.2 °F 50.1 °F 29.72 in Calm     96% 0.07 in 0 W/m2
22:34 51.2 °F 50.1 °F 29.72 in Calm     96% 0.07 in 0 W/m2
22:39 51.2 °F 50.1 °F 29.72 in Calm     96% 0.07 in 0 W/m2
22:44 51.3 °F 50.2 °F 29.71 in Calm     96% 0.08 in 0 W/m2
22:49 51.3 °F 50.2 °F 29.71 in Calm     96% 0.09 in 0 W/m2
22:54 51.5 °F 50.4 °F 29.70 in Calm     96% 0.10 in 0 W/m2
22:59 51.6 °F 50.5 °F 29.70 in Calm     96% 0.11 in 0 W/m2
23:00 51.7 °F 50.6 °F 29.70 in Calm     96% 0.11 in 0 W/m2
23:09 51.7 °F 50.6 °F 29.69 in Calm     96% 0.09 in 0 W/m2
23:14 51.7 °F 50.6 °F 29.69 in Calm     96% 0.10 in 0 W/m2
23:19 51.6 °F 50.5 °F 29.68 in Calm     96% 0.10 in 0 W/m2
23:24 51.6 °F 50.5 °F 29.68 in Calm     96% 0.10 in 0 W/m2
23:29 51.4 °F 50.3 °F 29.68 in Calm     96% 0.11 in 0 W/m2
23:34 51.4 °F 50.3 °F 29.67 in Calm     96% 0.11 in 0 W/m2
23:39 51.3 °F 50.2 °F 29.68 in Calm     96% 0.08 in 0 W/m2
23:44 51.3 °F 50.2 °F 29.69 in Calm     96% 0.08 in 0 W/m2
23:49 51.3 °F 50.2 °F 29.69 in Calm     96% 0.08 in 0 W/m2
23:54 51.3 °F 50.2 °F 29.68 in Calm     96% 0.08 in 0 W/m2
23:59 51.3 °F 50.2 °F 29.68 in Calm     96% 0.08 in 0 W/m2
Hartford County Weather
Compliments of Weather Underground - 2 mb